createdAt,value
2022-10-08T00:01:30.968Z,12.43
2022-10-08T00:03:59.011Z,9.33
2022-10-08T00:06:29.861Z,9.50
2022-10-08T00:08:59.832Z,8.70
2022-10-08T00:11:31.345Z,8.70
2022-10-08T00:13:59.799Z,8.93
2022-10-08T00:16:29.676Z,11.23
2022-10-08T00:19:00.807Z,11.37
2022-10-08T00:21:31.494Z,8.87
2022-10-08T00:24:01.306Z,9.33
2022-10-08T00:26:33.072Z,8.77
2022-10-08T00:29:02.894Z,9.60
2022-10-08T00:31:32.880Z,9.73
2022-10-08T00:34:02.880Z,11.83
2022-10-08T00:36:32.618Z,8.87
2022-10-08T00:39:02.212Z,9.13
2022-10-08T00:41:33.982Z,11.10
2022-10-08T00:44:04.180Z,9.37
2022-10-08T00:46:36.258Z,11.57
2022-10-08T00:49:07.547Z,12.17
2022-10-08T00:51:35.495Z,9.00
2022-10-08T00:54:05.180Z,9.80
2022-10-08T00:56:37.263Z,9.37
2022-10-08T00:59:05.736Z,12.20
2022-10-08T01:01:33.808Z,9.10
2022-10-08T01:04:06.044Z,10.80
2022-10-08T01:06:43.147Z,11.00
2022-10-08T01:09:19.155Z,8.13
2022-10-08T01:11:51.961Z,11.33
2022-10-08T01:14:30.400Z,8.87
2022-10-08T01:17:06.763Z,9.17
2022-10-08T01:19:56.090Z,8.50
2022-10-08T01:22:38.726Z,6.37
2022-10-08T01:25:33.777Z,7.77
2022-10-08T01:28:12.208Z,9.57
2022-10-08T01:30:46.447Z,9.67
2022-10-08T01:33:22.653Z,7.30
2022-10-08T01:35:56.189Z,7.83
2022-10-08T01:38:27.202Z,9.27
2022-10-08T01:40:59.059Z,6.53
2022-10-08T01:43:32.074Z,7.23
2022-10-08T01:46:06.987Z,7.00
2022-10-08T01:48:37.009Z,7.80
2022-10-08T01:51:09.708Z,12.80
2022-10-08T01:53:42.647Z,9.27
2022-10-08T01:56:12.981Z,8.53
2022-10-08T01:58:49.871Z,7.80
2022-10-08T02:01:23.496Z,9.67
2022-10-08T02:04:10.436Z,6.77
2022-10-08T02:06:42.800Z,11.60
2022-10-08T02:09:11.561Z,7.57
2022-10-08T02:11:39.463Z,7.63
2022-10-08T02:14:09.406Z,5.87
2022-10-08T02:16:44.100Z,9.07
2022-10-08T02:19:19.486Z,7.80
2022-10-08T02:21:47.589Z,9.63
2022-10-08T02:24:19.537Z,10.13
2022-10-08T02:26:49.371Z,9.30
2022-10-08T02:29:21.559Z,10.73
2022-10-08T02:31:54.678Z,3.90
2022-10-08T02:34:27.149Z,6.03
2022-10-08T02:37:02.091Z,9.47
2022-10-08T02:39:33.761Z,6.47
2022-10-08T02:42:05.527Z,4.73
2022-10-08T02:44:39.678Z,3.57
2022-10-08T02:47:11.299Z,6.40
2022-10-08T02:49:43.611Z,5.27
2022-10-08T02:52:13.364Z,5.20
2022-10-08T02:54:44.236Z,5.00
2022-10-08T02:57:17.113Z,4.97
2022-10-08T02:59:48.376Z,3.73
2022-10-08T03:02:21.147Z,4.17
2022-10-08T03:04:54.453Z,6.07
2022-10-08T03:07:24.482Z,6.40
2022-10-08T03:09:54.608Z,5.60
2022-10-08T03:12:22.589Z,5.73
2022-10-08T03:14:52.968Z,7.33
2022-10-08T03:17:25.039Z,7.10
2022-10-08T03:19:53.231Z,4.87
2022-10-08T03:22:21.218Z,6.23
2022-10-08T03:24:52.695Z,6.77
2022-10-08T03:27:22.733Z,6.80
2022-10-08T03:29:56.849Z,4.30
2022-10-08T03:32:24.948Z,5.07
2022-10-08T03:34:53.265Z,8.03
2022-10-08T03:37:21.544Z,3.73
2022-10-08T03:39:49.439Z,7.90
2022-10-08T03:42:17.360Z,6.97
2022-10-08T03:44:45.272Z,4.20
2022-10-08T03:47:14.476Z,4.57
2022-10-08T03:49:42.429Z,3.80
2022-10-08T03:52:10.293Z,5.53
2022-10-08T03:54:39.170Z,4.00
2022-10-08T03:57:07.072Z,7.50
2022-10-08T03:59:34.953Z,5.93
2022-10-08T04:02:02.846Z,3.77
2022-10-08T04:04:32.109Z,4.43
2022-10-08T04:06:59.975Z,5.60
2022-10-08T04:09:27.904Z,5.13
2022-10-08T04:11:55.795Z,4.10
2022-10-08T04:14:23.691Z,4.17
2022-10-08T04:16:51.540Z,6.07
2022-10-08T04:19:19.362Z,3.87
2022-10-08T04:21:48.609Z,4.50
2022-10-08T04:24:16.507Z,6.50
2022-10-08T04:26:44.423Z,6.83
2022-10-08T04:29:12.981Z,10.23
2022-10-08T04:31:41.152Z,11.07
2022-10-08T04:34:10.756Z,10.90
2022-10-08T04:36:39.759Z,15.23
2022-10-08T04:39:09.180Z,17.60
2022-10-08T04:41:37.093Z,16.07
2022-10-08T04:44:05.032Z,14.80
2022-10-08T04:46:32.926Z,18.30
2022-10-08T04:49:01.067Z,18.50
2022-10-08T04:51:29.454Z,19.63
2022-10-08T04:53:58.666Z,19.37
2022-10-08T04:56:29.589Z,18.23
2022-10-08T04:58:59.124Z,22.13
2022-10-08T05:01:28.494Z,22.70
2022-10-08T05:03:58.347Z,23.20
2022-10-08T05:06:29.101Z,27.43
2022-10-08T05:08:58.137Z,22.77
2022-10-08T05:11:28.619Z,21.63
2022-10-08T05:13:58.008Z,22.97
2022-10-08T05:16:27.068Z,25.63
2022-10-08T05:18:55.411Z,20.63
2022-10-08T05:21:25.364Z,24.80
2022-10-08T05:23:56.929Z,25.33
2022-10-08T05:26:56.401Z,32.70
2022-10-08T05:29:16.255Z,26.40
2022-10-08T05:31:44.167Z,27.27
2022-10-08T05:34:13.696Z,24.87
2022-10-08T05:36:41.636Z,27.47
2022-10-08T05:39:09.566Z,23.47
2022-10-08T05:41:39.065Z,24.13
2022-10-08T05:44:07.935Z,33.63
2022-10-08T05:46:37.275Z,26.67
2022-10-08T05:49:07.745Z,25.07
2022-10-08T05:51:36.111Z,30.40
2022-10-08T05:54:04.097Z,27.23
2022-10-08T05:56:32.132Z,28.83
2022-10-08T05:59:01.372Z,34.33
2022-10-08T06:01:31.786Z,39.97
2022-10-08T06:04:07.005Z,39.93
2022-10-08T06:06:36.632Z,36.23
2022-10-08T06:09:05.736Z,34.17
2022-10-08T06:11:36.009Z,37.27
2022-10-08T06:14:07.086Z,34.87
2022-10-08T06:16:36.236Z,36.83
2022-10-08T06:19:05.208Z,34.67
2022-10-08T06:21:33.299Z,36.63
2022-10-08T06:24:02.819Z,35.00
2022-10-08T06:26:35.659Z,39.33
2022-10-08T06:29:06.503Z,32.23
2022-10-08T06:31:35.459Z,30.30
2022-10-08T06:34:04.425Z,32.27
2022-10-08T06:36:33.694Z,32.23
2022-10-08T06:39:03.314Z,26.20
2022-10-08T06:41:33.273Z,36.00
2022-10-08T06:44:01.270Z,27.90
2022-10-08T06:46:32.250Z,31.53
2022-10-08T06:49:01.359Z,26.17
2022-10-08T06:51:30.436Z,28.63
2022-10-08T06:54:06.012Z,26.83
2022-10-08T06:56:36.587Z,30.53
2022-10-08T06:59:05.112Z,25.90
2022-10-08T07:01:35.304Z,28.07
2022-10-08T07:04:05.320Z,25.07
2022-10-08T07:06:33.250Z,23.53
2022-10-08T07:09:02.683Z,22.40
2022-10-08T07:11:32.002Z,23.27
2022-10-08T07:14:00.327Z,23.30
2022-10-08T07:16:29.377Z,21.60
2022-10-08T07:18:59.331Z,20.87
2022-10-08T07:21:28.537Z,22.03
2022-10-08T07:23:57.288Z,21.83
2022-10-08T07:26:26.884Z,15.23
2022-10-08T07:28:56.604Z,19.47
2022-10-08T07:31:27.980Z,15.03
2022-10-08T07:33:58.036Z,16.07
2022-10-08T07:36:26.843Z,19.70
2022-10-08T07:38:55.586Z,13.90
2022-10-08T07:41:24.044Z,16.53
2022-10-08T07:43:53.544Z,13.93
2022-10-08T07:46:22.259Z,16.43
2022-10-08T07:48:50.706Z,17.10
2022-10-08T07:51:21.545Z,15.60
2022-10-08T07:53:49.763Z,16.40
2022-10-08T07:56:19.368Z,16.10
2022-10-08T07:58:48.255Z,11.93
2022-10-08T08:01:19.171Z,20.17
2022-10-08T08:03:47.260Z,11.47
2022-10-08T08:06:16.805Z,12.27
2022-10-08T08:08:46.796Z,11.10
2022-10-08T08:11:17.421Z,9.70
2022-10-08T08:13:45.808Z,8.63
2022-10-08T08:16:16.098Z,13.23
2022-10-08T08:18:45.695Z,9.43
2022-10-08T08:21:16.159Z,9.47
2022-10-08T08:23:48.100Z,10.57
2022-10-08T08:26:18.340Z,11.40
2022-10-08T08:28:46.343Z,12.07
2022-10-08T08:31:15.860Z,9.37
2022-10-08T08:33:44.975Z,9.97
2022-10-08T08:36:12.861Z,8.90
2022-10-08T08:38:41.094Z,8.40
2022-10-08T08:41:29.420Z,11.90
2022-10-08T08:44:02.461Z,10.60
2022-10-08T08:46:36.402Z,12.57
2022-10-08T08:49:12.451Z,8.87
2022-10-08T08:51:40.345Z,10.37
2022-10-08T08:54:08.224Z,9.43
2022-10-08T08:56:37.524Z,6.03
2022-10-08T08:59:09.121Z,8.93
2022-10-08T09:01:42.700Z,11.23
2022-10-08T09:04:25.868Z,9.90
2022-10-08T09:09:21.491Z,9.53
2022-10-08T09:11:49.521Z,10.20
2022-10-08T09:14:35.703Z,10.27
2022-10-08T09:17:14.091Z,8.57
2022-10-08T09:19:42.271Z,9.27
2022-10-08T09:22:21.624Z,10.33
2022-10-08T09:24:54.120Z,8.97
2022-10-08T09:27:22.136Z,8.17
2022-10-08T09:29:49.992Z,10.03
2022-10-08T09:32:20.003Z,7.97
2022-10-08T09:34:48.914Z,8.13
2022-10-08T09:37:22.969Z,6.57
2022-10-08T09:40:19.865Z,6.23
2022-10-08T09:43:09.843Z,3.90
2022-10-08T09:45:41.169Z,6.30
2022-10-08T09:48:23.668Z,7.07
2022-10-08T09:50:59.567Z,7.00
2022-10-08T09:53:31.015Z,5.43
2022-10-08T09:56:02.628Z,8.13
2022-10-08T09:58:33.074Z,5.93
2022-10-08T10:01:04.705Z,6.37
2022-10-08T10:03:33.339Z,7.53
2022-10-08T10:06:01.949Z,4.17
2022-10-08T10:08:49.703Z,5.73
2022-10-08T10:11:25.399Z,4.43
2022-10-08T10:13:53.795Z,3.17
2022-10-08T10:16:27.115Z,7.40
2022-10-08T10:18:59.765Z,5.53
2022-10-08T10:21:39.989Z,3.87
2022-10-08T10:24:29.389Z,3.93
2022-10-08T10:27:04.812Z,3.47
2022-10-08T10:29:42.404Z,5.03
2022-10-08T10:32:20.855Z,7.10
2022-10-08T10:35:03.499Z,3.40
2022-10-08T10:37:39.818Z,4.33
2022-10-08T10:40:30.623Z,4.87
2022-10-08T10:43:18.212Z,4.73
2022-10-08T10:45:52.824Z,4.27
2022-10-08T10:48:20.858Z,3.27
2022-10-08T10:51:01.284Z,4.33
2022-10-08T10:53:36.789Z,6.73
2022-10-08T10:56:13.463Z,3.30
2022-10-08T10:58:58.659Z,4.80
2022-10-08T11:01:36.449Z,4.40
2022-10-08T11:04:11.591Z,4.13
2022-10-08T11:06:54.952Z,4.60
2022-10-08T11:09:32.980Z,4.50
2022-10-08T11:12:06.063Z,3.73
2022-10-08T11:14:56.043Z,2.47
2022-10-08T11:17:49.092Z,4.50
2022-10-08T11:20:37.845Z,3.73
2022-10-08T11:23:18.377Z,5.33
2022-10-08T11:26:16.531Z,2.03
2022-10-08T11:28:48.365Z,4.30
2022-10-08T11:31:29.375Z,4.10
2022-10-08T11:33:58.508Z,5.03
2022-10-08T11:36:36.076Z,2.57
2022-10-08T11:39:14.064Z,3.00
2022-10-08T11:41:48.969Z,4.23
2022-10-08T11:44:18.387Z,4.27
2022-10-08T11:46:47.932Z,2.90
2022-10-08T11:49:54.961Z,7.60
2022-10-08T11:52:23.016Z,3.50
2022-10-08T11:54:55.817Z,3.37
2022-10-08T11:57:49.215Z,5.50
2022-10-08T12:00:38.873Z,4.53
2022-10-08T12:03:24.187Z,5.97
2022-10-08T12:05:54.623Z,5.50
2022-10-08T12:08:53.818Z,5.53
2022-10-08T12:11:50.730Z,4.37
2022-10-08T12:14:32.036Z,6.23
2022-10-08T12:17:09.859Z,3.03
2022-10-08T12:20:19.154Z,3.67
2022-10-08T12:23:01.425Z,4.80
2022-10-08T12:25:39.139Z,4.43
2022-10-08T12:28:52.391Z,2.60
2022-10-08T12:31:28.007Z,4.10
2022-10-08T12:34:04.852Z,2.63
2022-10-08T12:36:53.347Z,3.20
2022-10-08T12:39:33.111Z,6.10
2022-10-08T12:42:09.496Z,4.03
2022-10-08T12:44:49.983Z,2.70
2022-10-08T12:47:27.338Z,6.23
2022-10-08T12:50:01.282Z,4.53
2022-10-08T12:52:34.984Z,4.13
2022-10-08T12:55:05.496Z,2.40
2022-10-08T12:57:36.943Z,3.50
2022-10-08T13:00:09.578Z,5.80
2022-10-08T13:02:39.504Z,2.97
2022-10-08T13:05:24.161Z,3.43
2022-10-08T13:07:54.053Z,5.27
2022-10-08T13:10:24.033Z,3.93
2022-10-08T13:13:05.908Z,3.53
2022-10-08T13:15:35.276Z,3.60
2022-10-08T13:18:14.247Z,3.20
2022-10-08T13:20:56.936Z,5.03
2022-10-08T13:23:27.380Z,2.40
2022-10-08T13:25:55.370Z,3.90
2022-10-08T13:28:48.427Z,2.73
2022-10-08T13:31:24.253Z,5.40
2022-10-08T13:33:52.395Z,2.80
2022-10-08T13:36:22.716Z,3.70
2022-10-08T13:38:52.067Z,6.50
2022-10-08T13:41:24.103Z,4.40
2022-10-08T13:43:52.189Z,4.17
2022-10-08T13:46:20.101Z,4.37
2022-10-08T13:48:48.010Z,4.50
2022-10-08T13:51:15.938Z,3.43
2022-10-08T13:53:45.534Z,6.03
2022-10-08T13:56:14.892Z,3.70
2022-10-08T13:58:42.847Z,4.50
2022-10-08T14:01:10.784Z,3.53
2022-10-08T14:03:38.728Z,5.13
2022-10-08T14:06:06.963Z,3.43
2022-10-08T14:08:36.021Z,5.07
2022-10-08T14:11:03.927Z,5.20
2022-10-08T14:13:33.177Z,4.17
2022-10-08T14:16:01.210Z,2.90
2022-10-08T14:18:29.162Z,6.13
2022-10-08T14:20:57.143Z,4.03
2022-10-08T14:23:25.020Z,5.33
2022-10-08T14:25:54.306Z,4.10
2022-10-08T14:28:22.233Z,4.07
2022-10-08T14:30:51.553Z,3.87
2022-10-08T14:33:19.460Z,3.73
2022-10-08T14:35:50.971Z,2.60
2022-10-08T14:38:18.927Z,4.50
2022-10-08T14:40:47.124Z,2.90
2022-10-08T14:43:15.052Z,3.60
2022-10-08T14:45:43.018Z,7.03
2022-10-08T14:48:12.507Z,5.90
2022-10-08T14:50:40.374Z,5.93
2022-10-08T14:53:08.292Z,2.57
2022-10-08T14:55:54.459Z,3.67
2022-10-08T14:58:22.596Z,3.43
2022-10-08T15:00:54.415Z,4.70
2022-10-08T15:03:24.122Z,7.53
2022-10-08T15:05:52.257Z,4.97
2022-10-08T15:08:20.682Z,6.20
2022-10-08T15:10:48.576Z,4.03
2022-10-08T15:13:16.438Z,5.83
2022-10-08T15:15:45.531Z,5.47
2022-10-08T15:18:14.194Z,5.37
2022-10-08T15:20:43.476Z,5.57
2022-10-08T15:23:11.376Z,6.37
2022-10-08T15:25:40.376Z,3.40
2022-10-08T15:28:08.274Z,6.23
2022-10-08T15:30:36.387Z,4.60
2022-10-08T15:33:05.088Z,3.90
2022-10-08T15:35:36.147Z,2.10
2022-10-08T15:38:05.443Z,4.50
2022-10-08T15:40:33.404Z,4.57
2022-10-08T15:43:01.333Z,3.93
2022-10-08T15:45:29.242Z,4.57
2022-10-08T15:47:57.130Z,5.40
2022-10-08T15:50:25.068Z,3.23
2022-10-08T15:52:53.230Z,6.27
2022-10-08T15:55:22.629Z,5.80
2022-10-08T15:57:50.552Z,4.47
2022-10-08T16:00:18.772Z,5.27
2022-10-08T16:02:47.043Z,2.33
2022-10-08T16:05:15.293Z,4.73
2022-10-08T16:07:43.153Z,3.87
2022-10-08T16:10:11.270Z,3.37
2022-10-08T16:12:40.547Z,5.30
2022-10-08T16:15:09.608Z,4.83
2022-10-08T16:17:37.486Z,6.23
2022-10-08T16:20:06.516Z,4.90
2022-10-08T16:22:34.432Z,3.90
2022-10-08T16:25:02.402Z,7.47
2022-10-08T16:27:30.311Z,6.10
2022-10-08T16:29:59.644Z,6.57
2022-10-08T16:32:27.575Z,4.87
2022-10-08T16:34:55.435Z,5.43
2022-10-08T16:37:23.303Z,6.40
2022-10-08T16:39:51.164Z,6.43
2022-10-08T16:42:19.060Z,4.83
2022-10-08T16:44:47.027Z,3.13
2022-10-08T16:47:16.295Z,5.90
2022-10-08T16:49:44.980Z,6.93
2022-10-08T16:52:13.460Z,5.90
2022-10-08T16:54:41.431Z,5.50
2022-10-08T16:57:09.606Z,5.10
2022-10-08T16:59:37.639Z,5.37
2022-10-08T17:02:05.602Z,7.37
2022-10-08T17:04:39.018Z,4.70
2022-10-08T17:07:07.340Z,4.97
2022-10-08T17:09:35.387Z,5.87
2022-10-08T17:12:03.359Z,4.50
2022-10-08T17:14:33.051Z,7.87
2022-10-08T17:17:01.084Z,5.73
2022-10-08T17:19:29.359Z,5.97
2022-10-08T17:21:58.592Z,6.30
2022-10-08T17:24:26.735Z,7.23
2022-10-08T17:26:54.718Z,6.93
2022-10-08T17:29:22.588Z,5.97
2022-10-08T17:31:50.444Z,5.20
2022-10-08T17:34:18.344Z,5.07
2022-10-08T17:36:47.028Z,3.37
2022-10-08T17:39:16.325Z,6.20
2022-10-08T17:41:44.580Z,3.67
2022-10-08T17:44:13.071Z,5.57
2022-10-08T17:46:43.115Z,5.80
2022-10-08T17:49:11.506Z,4.43
2022-10-08T17:51:40.140Z,4.70
2022-10-08T17:54:11.953Z,5.17
2022-10-08T17:56:41.705Z,4.60
2022-10-08T17:59:09.595Z,4.30
2022-10-08T18:01:41.385Z,7.60
2022-10-08T18:04:15.414Z,5.43
2022-10-08T18:06:46.008Z,5.13
2022-10-08T18:09:16.188Z,3.37
2022-10-08T18:11:48.434Z,6.27
2022-10-08T18:14:17.228Z,6.23
2022-10-08T18:16:48.212Z,4.20
2022-10-08T18:19:16.777Z,4.30
2022-10-08T18:21:44.820Z,5.43
2022-10-08T18:24:12.709Z,5.40
2022-10-08T18:26:40.593Z,4.80
2022-10-08T18:29:11.565Z,4.23
2022-10-08T18:31:41.134Z,3.93
2022-10-08T18:34:12.768Z,5.40
2022-10-08T18:36:40.839Z,6.20
2022-10-08T18:39:11.951Z,3.07
2022-10-08T18:41:41.711Z,5.80
2022-10-08T18:44:13.701Z,5.87
2022-10-08T18:46:42.227Z,4.07
2022-10-08T18:49:13.067Z,5.10
2022-10-08T18:51:40.983Z,8.03
2022-10-08T18:54:10.747Z,4.83
2022-10-08T18:56:40.711Z,4.23
2022-10-08T18:59:12.471Z,5.37
2022-10-08T19:01:43.029Z,4.50
2022-10-08T19:04:14.796Z,6.33
2022-10-08T19:06:45.392Z,4.67
2022-10-08T19:09:14.025Z,5.10
2022-10-08T19:11:44.856Z,4.23
2022-10-08T19:14:16.873Z,5.37
2022-10-08T19:16:45.526Z,5.63
2022-10-08T19:19:15.978Z,5.53
2022-10-08T19:21:44.635Z,5.60
2022-10-08T19:24:15.133Z,5.73
2022-10-08T19:26:43.347Z,5.33
2022-10-08T19:29:17.161Z,5.43
2022-10-08T19:31:47.403Z,7.73
2022-10-08T19:34:17.024Z,6.63
2022-10-08T19:36:45.407Z,5.47
2022-10-08T19:39:16.151Z,6.77
2022-10-08T19:41:44.984Z,7.70
2022-10-08T19:44:13.050Z,7.33
2022-10-08T19:46:42.421Z,6.13
2022-10-08T19:49:11.026Z,7.00
2022-10-08T19:51:39.426Z,6.80
2022-10-08T19:54:07.854Z,6.13
2022-10-08T19:56:36.339Z,6.50
2022-10-08T19:59:05.080Z,5.80
2022-10-08T20:01:34.899Z,8.63
2022-10-08T20:04:06.108Z,8.03
2022-10-08T20:06:35.893Z,8.90
2022-10-08T20:09:05.295Z,9.23
2022-10-08T20:11:33.870Z,8.80
2022-10-08T20:14:02.050Z,11.50
2022-10-08T20:16:31.579Z,9.40
2022-10-08T20:19:01.238Z,13.47
2022-10-08T20:21:32.746Z,11.07
2022-10-08T20:24:01.112Z,11.80
2022-10-08T20:26:30.551Z,8.63
2022-10-08T20:29:00.144Z,7.17
2022-10-08T20:31:30.433Z,14.20
2022-10-08T20:34:00.783Z,19.73
2022-10-08T20:36:30.955Z,14.60
2022-10-08T20:38:59.722Z,11.70
2022-10-08T20:41:30.941Z,10.30
2022-10-08T20:44:02.247Z,12.17
2022-10-08T20:46:31.132Z,11.73
2022-10-08T20:48:59.272Z,10.90
2022-10-08T20:51:30.213Z,10.57
2022-10-08T20:54:00.163Z,12.53
2022-10-08T20:56:29.386Z,12.27
2022-10-08T20:58:58.082Z,14.67
2022-10-08T21:01:28.296Z,13.33
2022-10-08T21:03:56.791Z,13.57
2022-10-08T21:06:26.580Z,15.30
2022-10-08T21:08:57.328Z,14.57
2022-10-08T21:11:26.946Z,16.00
2022-10-08T21:13:54.890Z,14.73
2022-10-08T21:16:25.797Z,17.20
2022-10-08T21:18:56.700Z,15.43
2022-10-08T21:21:25.477Z,15.47
2022-10-08T21:23:54.824Z,12.47
2022-10-08T21:26:25.263Z,15.43
2022-10-08T21:28:55.705Z,13.27
2022-10-08T21:31:24.571Z,12.47
2022-10-08T21:33:53.963Z,15.43
2022-10-08T21:36:23.351Z,15.57
2022-10-08T21:38:51.825Z,15.97
2022-10-08T21:41:23.708Z,13.53
2022-10-08T21:43:53.053Z,13.07
2022-10-08T21:46:22.805Z,12.37
2022-10-08T21:48:55.135Z,14.07
2022-10-08T21:51:23.467Z,15.67
2022-10-08T21:53:53.620Z,14.57
2022-10-08T21:56:24.880Z,11.47
2022-10-08T21:58:55.064Z,14.30
2022-10-08T22:01:25.609Z,15.70
2022-10-08T22:03:55.175Z,12.90
2022-10-08T22:06:25.539Z,14.20
2022-10-08T22:08:53.526Z,16.23
2022-10-08T22:11:23.165Z,13.13
2022-10-08T22:13:51.407Z,16.00
2022-10-08T22:16:21.323Z,14.03
2022-10-08T22:18:49.808Z,15.27
2022-10-08T22:21:19.918Z,16.60
2022-10-08T22:23:48.673Z,20.03
2022-10-08T22:26:18.800Z,15.97
2022-10-08T22:28:48.678Z,15.03
2022-10-08T22:31:18.650Z,17.17
2022-10-08T22:33:47.216Z,15.20
2022-10-08T22:36:17.580Z,15.97
2022-10-08T22:38:45.936Z,14.27
2022-10-08T22:41:15.588Z,14.23
2022-10-08T22:43:44.328Z,15.47
2022-10-08T22:46:16.214Z,14.63
2022-10-08T22:48:44.625Z,16.30
2022-10-08T22:51:14.874Z,16.67
2022-10-08T22:53:43.341Z,17.47
2022-10-08T22:56:13.577Z,14.60
2022-10-08T22:58:41.616Z,13.17
2022-10-08T23:01:13.596Z,15.43
2022-10-08T23:03:42.063Z,14.63
2022-10-08T23:06:16.099Z,14.73
2022-10-08T23:08:45.259Z,15.00
2022-10-08T23:11:13.871Z,15.40
2022-10-08T23:13:45.425Z,15.57
2022-10-08T23:16:16.700Z,13.97
2022-10-08T23:18:47.056Z,12.20
2022-10-08T23:21:17.029Z,17.90
2022-10-08T23:23:46.107Z,13.10
2022-10-08T23:26:14.839Z,12.77
2022-10-08T23:28:43.659Z,13.13
2022-10-08T23:31:14.868Z,14.63
2022-10-08T23:33:45.190Z,15.10
2022-10-08T23:36:15.670Z,13.53
2022-10-08T23:38:43.661Z,14.70
2022-10-08T23:41:13.359Z,16.07
2022-10-08T23:43:43.610Z,17.00
2022-10-08T23:46:14.978Z,17.40
2022-10-08T23:48:43.243Z,14.83
2022-10-08T23:51:12.923Z,12.67
2022-10-08T23:53:41.345Z,14.20
2022-10-08T23:56:09.973Z,15.90
2022-10-08T23:58:38.248Z,13.43
